Bookmark and Share
Track history (hours):
 

Morgan Ray

More information available from US FCC via Universal Licensing System and Coast Guard Vessel Documentation Center.

Last reported at 2014-Mar-15 13:33 UTC. Time now 2014-Apr-17 15:46 UTC.
Position N 29°41' W 091°11'.
Warning: this ship's position is 33 days out of date.

Length 20 m; draft 2 m.

Type: Tug. MMSI: 367470470.

NotesDate/timePositionNaut miles runAvg speedWind from/ knotsBaromVisibWave heightAir tempDewpointWater temp
2014-Mar-15 13:33N 29°41' W 091°11'2 1.8
2014-Mar-15 12:33N 29°41' W 091°09'1 1.4
2014-Mar-15 11:33N 29°40' W 091°08'4 3.5
2014-Mar-15 10:33N 29°38' W 091°05'4 4.3
2014-Mar-15 09:33N 29°37' W 091°00'4 4.3
2014-Mar-15 08:33N 29°34' W 090°57'5 5.2
2014-Mar-15 07:33N 29°32' W 090°51'46 2.4
2014-Mar-14 12:32N 29°54' W 090°05'  
2014-Mar-09 14:11N 29°32' W 090°51'5 6.9
2014-Mar-09 13:23N 29°34' W 090°57'5 5.5
2014-Mar-09 12:33N 29°37' W 091°01'5 4.9
2014-Mar-09 11:33N 29°38' W 091°06'3 3.2
2014-Mar-09 10:33N 29°41' W 091°09'2 1.9
2014-Mar-09 09:33N 29°41' W 091°11'1 1.5
2014-Mar-09 08:33N 29°41' W 091°13'5 4.7
2014-Mar-09 07:33N 29°39' W 091°17'5 4.6
2014-Mar-09 06:33N 29°39' W 091°23'4 3.9
2014-Mar-09 05:32N 29°40' W 091°27'5 5.0
2014-Mar-09 04:33N 29°42' W 091°32'6 4.6
2014-Mar-09 03:18N 29°46' W 091°37'  

Dump ship's entire track history

sailing weather and tide predictions

Morgan Ray — WDF6085 — position and weather